sensor_id;sensor_type;location;lat;lon;timestamp;temperature;humidity
14154;DHT22;7157;53.144;7.570;2023-03-31T00:07:52;12.07;91.16
14154;DHT22;7157;53.144;7.570;2023-03-31T00:17:57;12.06;91.21
14154;DHT22;7157;53.144;7.570;2023-03-31T00:28:01;12.18;90.64
14154;DHT22;7157;53.144;7.570;2023-03-31T00:38:05;12.35;90.44
14154;DHT22;7157;53.144;7.570;2023-03-31T00:48:13;12.37;90.17
14154;DHT22;7157;53.144;7.570;2023-03-31T00:58:20;12.41;89.94
14154;DHT22;7157;53.144;7.570;2023-03-31T01:08:28;12.25;90.27
14154;DHT22;7157;53.144;7.570;2023-03-31T01:18:33;12.10;90.66
14154;DHT22;7157;53.144;7.570;2023-03-31T01:28:38;11.89;91.19
14154;DHT22;7157;53.144;7.570;2023-03-31T01:39:14;11.67;91.92
14154;DHT22;7157;53.144;7.570;2023-03-31T01:49:26;11.70;92.82
14154;DHT22;7157;53.144;7.570;2023-03-31T01:59:35;11.76;92.76
14154;DHT22;7157;53.144;7.570;2023-03-31T02:09:43;11.86;92.50
14154;DHT22;7157;53.144;7.570;2023-03-31T02:19:49;11.71;93.27
14154;DHT22;7157;53.144;7.570;2023-03-31T02:29:56;11.57;94.27
14154;DHT22;7157;53.144;7.570;2023-03-31T02:40:04;11.38;95.72
14154;DHT22;7157;53.144;7.570;2023-03-31T02:50:12;11.31;96.39
14154;DHT22;7157;53.144;7.570;2023-03-31T03:00:19;11.34;96.52
14154;DHT22;7157;53.144;7.570;2023-03-31T03:10:32;11.27;96.28
14154;DHT22;7157;53.144;7.570;2023-03-31T03:20:37;11.22;96.77
14154;DHT22;7157;53.144;7.570;2023-03-31T03:30:43;11.16;97.07
14154;DHT22;7157;53.144;7.570;2023-03-31T03:40:46;11.19;96.75
14154;DHT22;7157;53.144;7.570;2023-03-31T03:50:52;11.13;97.26
14154;DHT22;7157;53.144;7.570;2023-03-31T04:00:55;11.08;97.20
14154;DHT22;7157;53.144;7.570;2023-03-31T04:10:59;11.15;96.64
14154;DHT22;7157;53.144;7.570;2023-03-31T04:21:02;11.19;96.87
14154;DHT22;7157;53.144;7.570;2023-03-31T04:31:08;11.24;96.86
14154;DHT22;7157;53.144;7.570;2023-03-31T04:41:16;11.42;96.30
14154;DHT22;7157;53.144;7.570;2023-03-31T04:51:20;11.64;95.39
14154;DHT22;7157;53.144;7.570;2023-03-31T05:01:22;11.52;96.49
14154;DHT22;7157;53.144;7.570;2023-03-31T05:11:27;11.38;97.54
14154;DHT22;7157;53.144;7.570;2023-03-31T05:21:30;11.19;99.57
14154;DHT22;7157;53.144;7.570;2023-03-31T05:31:34;11.07;100.39
14154;DHT22;7157;53.144;7.570;2023-03-31T05:41:37;10.92;102.60
14154;DHT22;7157;53.144;7.570;2023-03-31T05:51:41;10.93;103.44
14154;DHT22;7157;53.144;7.570;2023-03-31T06:01:43;10.96;103.83
14154;DHT22;7157;53.144;7.570;2023-03-31T06:11:47;11.01;104.15
14154;DHT22;7157;53.144;7.570;2023-03-31T06:21:51;11.03;104.34
14154;DHT22;7157;53.144;7.570;2023-03-31T06:31:55;11.08;104.55
14154;DHT22;7157;53.144;7.570;2023-03-31T06:41:58;11.23;104.48
14154;DHT22;7157;53.144;7.570;2023-03-31T06:52:02;11.44;104.15
14154;DHT22;7157;53.144;7.570;2023-03-31T07:02:05;11.47;104.45
14154;DHT22;7157;53.144;7.570;2023-03-31T07:12:12;11.54;104.22
14154;DHT22;7157;53.144;7.570;2023-03-31T07:22:14;11.67;103.66
14154;DHT22;7157;53.144;7.570;2023-03-31T07:32:19;11.77;103.21
14154;DHT22;7157;53.144;7.570;2023-03-31T07:42:22;11.85;102.87
14154;DHT22;7157;53.144;7.570;2023-03-31T07:52:26;12.06;102.86
14154;DHT22;7157;53.144;7.570;2023-03-31T08:02:29;12.16;102.41
14154;DHT22;7157;53.144;7.570;2023-03-31T08:12:33;12.01;102.55
14154;DHT22;7157;53.144;7.570;2023-03-31T08:22:36;12.00;103.36
14154;DHT22;7157;53.144;7.570;2023-03-31T08:32:40;12.13;102.22
14154;DHT22;7157;53.144;7.570;2023-03-31T08:42:44;12.35;102.19
14154;DHT22;7157;53.144;7.570;2023-03-31T08:52:53;12.25;101.67
14154;DHT22;7157;53.144;7.570;2023-03-31T09:03:01;12.20;102.32
14154;DHT22;7157;53.144;7.570;2023-03-31T09:13:20;12.17;101.70
14154;DHT22;7157;53.144;7.570;2023-03-31T09:23:28;12.48;101.77
14154;DHT22;7157;53.144;7.570;2023-03-31T09:33:33;12.69;101.23
14154;DHT22;7157;53.144;7.570;2023-03-31T09:43:37;12.70;100.59
14154;DHT22;7157;53.144;7.570;2023-03-31T09:53:47;12.78;101.29
14154;DHT22;7157;53.144;7.570;2023-03-31T10:03:51;13.34;100.07
14154;DHT22;7157;53.144;7.570;2023-03-31T10:14:02;13.71;99.10
14154;DHT22;7157;53.144;7.570;2023-03-31T10:24:07;13.31;99.02
14154;DHT22;7157;53.144;7.570;2023-03-31T10:34:14;13.49;96.77
14154;DHT22;7157;53.144;7.570;2023-03-31T10:44:31;13.52;97.69
14154;DHT22;7157;53.144;7.570;2023-03-31T10:54:36;13.22;98.86
14154;DHT22;7157;53.144;7.570;2023-03-31T11:04:50;12.84;99.58
14154;DHT22;7157;53.144;7.570;2023-03-31T11:15:04;12.73;101.97
14154;DHT22;7157;53.144;7.570;2023-03-31T11:25:32;12.60;102.61
14154;DHT22;7157;53.144;7.570;2023-03-31T11:35:50;12.87;102.89
14154;DHT22;7157;53.144;7.570;2023-03-31T11:46:00;12.64;103.87
14154;DHT22;7157;53.144;7.570;2023-03-31T11:56:06;12.76;103.49
14154;DHT22;7157;53.144;7.570;2023-03-31T12:06:12;13.50;101.72
14154;DHT22;7157;53.144;7.570;2023-03-31T12:16:22;13.83;98.33
14154;DHT22;7157;53.144;7.570;2023-03-31T12:26:33;13.97;97.20
14154;DHT22;7157;53.144;7.570;2023-03-31T12:36:51;14.75;93.81
14154;DHT22;7157;53.144;7.570;2023-03-31T12:57:44;15.25;90.66
14154;DHT22;7157;53.144;7.570;2023-03-31T13:07:47;16.02;90.02
14154;DHT22;7157;53.144;7.570;2023-03-31T13:17:56;16.10;87.48
14154;DHT22;7157;53.144;7.570;2023-03-31T13:28:08;15.82;87.84
14154;DHT22;7157;53.144;7.570;2023-03-31T13:38:23;17.03;79.70
14154;DHT22;7157;53.144;7.570;2023-03-31T13:48:41;18.15;81.00
14154;DHT22;7157;53.144;7.570;2023-03-31T13:59:09;17.91;75.16
14154;DHT22;7157;53.144;7.570;2023-03-31T14:09:20;17.98;77.09
14154;DHT22;7157;53.144;7.570;2023-03-31T14:19:40;15.82;83.68
14154;DHT22;7157;53.144;7.570;2023-03-31T14:29:48;15.21;86.31
14154;DHT22;7157;53.144;7.570;2023-03-31T14:39:56;15.01;90.44
14154;DHT22;7157;53.144;7.570;2023-03-31T14:50:00;15.10;92.14
14154;DHT22;7157;53.144;7.570;2023-03-31T15:00:13;15.67;89.90
14154;DHT22;7157;53.144;7.570;2023-03-31T15:10:19;15.22;91.63
14154;DHT22;7157;53.144;7.570;2023-03-31T15:20:29;14.79;92.47
14154;DHT22;7157;53.144;7.570;2023-03-31T15:30:35;14.92;92.47
14154;DHT22;7157;53.144;7.570;2023-03-31T15:40:40;14.91;91.85
14154;DHT22;7157;53.144;7.570;2023-03-31T15:50:44;11.68;97.90
14154;DHT22;7157;53.144;7.570;2023-03-31T16:00:50;10.97;102.13
14154;DHT22;7157;53.144;7.570;2023-03-31T16:10:56;11.30;103.83
14154;DHT22;7157;53.144;7.570;2023-03-31T16:21:04;11.68;104.56
14154;DHT22;7157;53.144;7.570;2023-03-31T16:31:27;11.92;105.13
14154;DHT22;7157;53.144;7.570;2023-03-31T16:41:33;12.00;105.46
14154;DHT22;7157;53.144;7.570;2023-03-31T16:51:37;11.97;105.88
14154;DHT22;7157;53.144;7.570;2023-03-31T17:01:41;12.05;106.20
14154;DHT22;7157;53.144;7.570;2023-03-31T17:11:43;12.08;106.60
14154;DHT22;7157;53.144;7.570;2023-03-31T17:21:47;11.93;106.72
14154;DHT22;7157;53.144;7.570;2023-03-31T17:31:51;11.84;106.85
14154;DHT22;7157;53.144;7.570;2023-03-31T17:41:56;11.98;107.12
14154;DHT22;7157;53.144;7.570;2023-03-31T17:51:59;12.01;107.38
14154;DHT22;7157;53.144;7.570;2023-03-31T18:02:03;11.98;107.34
14154;DHT22;7157;53.144;7.570;2023-03-31T18:12:06;11.94;107.33
14154;DHT22;7157;53.144;7.570;2023-03-31T18:22:10;11.85;107.19
14154;DHT22;7157;53.144;7.570;2023-03-31T18:32:12;11.90;106.73
14154;DHT22;7157;53.144;7.570;2023-03-31T18:42:18;11.91;106.68
14154;DHT22;7157;53.144;7.570;2023-03-31T18:52:25;11.93;107.14
14154;DHT22;7157;53.144;7.570;2023-03-31T19:02:29;11.84;106.92
14154;DHT22;7157;53.144;7.570;2023-03-31T19:12:32;11.82;106.83
14154;DHT22;7157;53.144;7.570;2023-03-31T19:22:36;11.83;106.55
14154;DHT22;7157;53.144;7.570;2023-03-31T19:32:39;11.82;106.43
14154;DHT22;7157;53.144;7.570;2023-03-31T19:42:43;11.78;106.68
14154;DHT22;7157;53.144;7.570;2023-03-31T19:52:46;11.79;106.81
14154;DHT22;7157;53.144;7.570;2023-03-31T20:02:51;11.81;106.59
14154;DHT22;7157;53.144;7.570;2023-03-31T20:12:54;11.82;107.04
14154;DHT22;7157;53.144;7.570;2023-03-31T20:22:58;11.76;107.33
14154;DHT22;7157;53.144;7.570;2023-03-31T20:33:01;11.77;107.24
14154;DHT22;7157;53.144;7.570;2023-03-31T20:43:05;11.79;106.82
14154;DHT22;7157;53.144;7.570;2023-03-31T20:53:08;11.75;106.70
14154;DHT22;7157;53.144;7.570;2023-03-31T21:03:12;11.71;106.85
14154;DHT22;7157;53.144;7.570;2023-03-31T21:13:15;11.62;107.04
14154;DHT22;7157;53.144;7.570;2023-03-31T21:23:20;11.61;107.26
14154;DHT22;7157;53.144;7.570;2023-03-31T21:33:23;11.62;107.57
14154;DHT22;7157;53.144;7.570;2023-03-31T21:43:27;11.49;107.46
14154;DHT22;7157;53.144;7.570;2023-03-31T21:53:31;11.54;107.38
14154;DHT22;7157;53.144;7.570;2023-03-31T22:03:35;11.41;106.87
14154;DHT22;7157;53.144;7.570;2023-03-31T22:13:39;11.45;107.37
14154;DHT22;7157;53.144;7.570;2023-03-31T22:23:43;11.42;107.43
14154;DHT22;7157;53.144;7.570;2023-03-31T22:33:46;11.33;107.67
14154;DHT22;7157;53.144;7.570;2023-03-31T22:43:51;11.26;107.78
14154;DHT22;7157;53.144;7.570;2023-03-31T22:53:53;11.28;107.88
14154;DHT22;7157;53.144;7.570;2023-03-31T23:03:57;11.27;107.86
14154;DHT22;7157;53.144;7.570;2023-03-31T23:14:01;11.37;107.59
14154;DHT22;7157;53.144;7.570;2023-03-31T23:24:06;11.38;107.91
14154;DHT22;7157;53.144;7.570;2023-03-31T23:34:09;11.37;107.69
14154;DHT22;7157;53.144;7.570;2023-03-31T23:44:13;11.27;107.73
14154;DHT22;7157;53.144;7.570;2023-03-31T23:54:15;11.30;107.56
